Joe Clay Davis — WDF7281 — position and weather

sailwx.info

Track history (hours):
 
Tides and Currents Weather Stations Pressure Air Temp Water Temp Dewpoint Dewpoint Depression Visibility Wind Speed Wind Dir Waves Ship Positions

Joe Clay Davis

Owner: CPD, Inc., Friars Point, MS. More information available from US FCC via Universal Licensing System and Coast Guard Vessel Documentation Center.

Last reported at 2017-Sep-16 02:46 UTC. Time now 2017-Nov-19 16:20 UTC.
Position N 32°41' W 091°04'.
Warning: this ship's position is months out of date.

Length 21 m; draft 2.5 m.

Type: Towing. MMSI: 367482910.

Date/timePositionNaut miles runAvg speedWind from/ knotsBaromVisibWave heightAir tempDewpointWater temp
2017-Sep-16 02:46N 32°41' W 091°04'0 0.6
2017-Sep-16 02:06N 32°41' W 091°04'1 4.4
2017-Sep-16 01:50N 32°41' W 091°06'1 3.9
2017-Sep-16 01:30N 32°40' W 091°07'2 3.1
2017-Sep-16 00:58N 32°39' W 091°09'2 3.8
2017-Sep-16 00:30N 32°37' W 091°09'1 2.5
2017-Sep-16 00:00N 32°36' W 091°09'2 4.0
2017-Sep-15 23:30N 32°35' W 091°07'2 3.2
2017-Sep-15 23:00N 32°34' W 091°06'2 4.2
2017-Sep-15 22:30N 32°31' W 091°06'2 4.6
2017-Sep-15 22:00N 32°29' W 091°07'2 4.5
2017-Sep-15 21:30N 32°27' W 091°05'2 4.5
2017-Sep-15 21:00N 32°26' W 091°03'2 4.4
2017-Sep-15 20:30N 32°25' W 091°00'2 3.7
2017-Sep-15 20:00N 32°24' W 090°60'2 4.4
2017-Sep-15 19:30N 32°22' W 091°00'2 4.5
2017-Sep-15 19:00N 32°21' W 090°57'2 4.2
2017-Sep-15 18:30N 32°20' W 090°55'2 3.5
2017-Sep-15 18:00N 32°19' W 090°54'2 3.2
2017-Sep-15 17:30N 32°17' W 090°55'0 0.1
2017-Sep-15 17:00N 32°17' W 090°55'0 0.0
2017-Sep-15 16:30N 32°17' W 090°55'0 0.0
2017-Sep-15 16:00N 32°17' W 090°55'0 0.0
2017-Sep-15 15:30N 32°17' W 090°55'0 0.0
2017-Sep-15 15:00N 32°17' W 090°55'0 0.0
2017-Sep-15 14:30N 32°17' W 090°55'0 0.0
2017-Sep-15 14:00N 32°17' W 090°55'0 0.0
2017-Sep-15 13:30N 32°17' W 090°55'0 0.0
2017-Sep-15 13:00N 32°17' W 090°55'0 0.0
2017-Sep-15 12:30N 32°17' W 090°55'0 0.0
2017-Sep-15 12:00N 32°17' W 090°55'0 0.0
2017-Sep-15 11:30N 32°17' W 090°55'0 0.0
2017-Sep-15 11:00N 32°17' W 090°55'0 0.0
2017-Sep-15 10:30N 32°17' W 090°55'0 0.0
2017-Sep-15 10:00N 32°17' W 090°55'0 0.0
2017-Sep-15 09:30N 32°17' W 090°55'0 0.0
2017-Sep-15 09:00N 32°17' W 090°55'0 0.0
2017-Sep-15 08:30N 32°17' W 090°55'0 0.0
2017-Sep-15 08:00N 32°17' W 090°55'0 0.0
2017-Sep-15 07:30N 32°17' W 090°55'0 0.0
2017-Sep-15 07:00N 32°17' W 090°55'0 0.0
2017-Sep-15 06:30N 32°17' W 090°55'0 0.0
2017-Sep-15 06:00N 32°17' W 090°55'0 0.0
2017-Sep-15 05:30N 32°17' W 090°55'0 0.0
2017-Sep-15 05:00N 32°17' W 090°55'0 0.0
2017-Sep-15 04:30N 32°17' W 090°55'0 0.0
2017-Sep-15 04:00N 32°17' W 090°55'0 0.0
2017-Sep-15 03:30N 32°17' W 090°55'0 0.0
2017-Sep-15 03:00N 32°17' W 090°55'0 0.0
2017-Sep-15 02:30N 32°17' W 090°55'0 0.0
2017-Sep-15 02:00N 32°17' W 090°55'0 0.0
2017-Sep-15 01:30N 32°17' W 090°55'0 0.0
2017-Sep-15 01:00N 32°17' W 090°55'0 0.0
2017-Sep-15 00:30N 32°17' W 090°55'0 0.0
2017-Sep-15 00:00N 32°17' W 090°55'0 0.0
2017-Sep-14 23:30N 32°17' W 090°55'0 0.0
2017-Sep-14 23:00N 32°17' W 090°55'0 0.0
2017-Sep-14 22:30N 32°17' W 090°55'0 0.0
2017-Sep-14 22:00N 32°17' W 090°55'0 0.0
2017-Sep-14 21:30N 32°17' W 090°55'0 0.0
2017-Sep-14 21:00N 32°17' W 090°55'0 0.0
2017-Sep-14 20:30N 32°17' W 090°55'0 0.0
2017-Sep-14 20:00N 32°17' W 090°55'0 0.0
2017-Sep-14 18:38N 32°17' W 090°55'0 0.1
2017-Sep-14 18:30N 32°17' W 090°55'0 0.0
2017-Sep-14 18:00N 32°17' W 090°55'0 0.0
2017-Sep-14 17:09N 32°17' W 090°55'0 0.0
2017-Sep-14 17:00N 32°17' W 090°55'0 0.0
2017-Sep-14 16:30N 32°17' W 090°55'0 0.0
2017-Sep-14 16:00N 32°17' W 090°55'0 0.0
2017-Sep-14 15:30N 32°17' W 090°55'0 0.0
2017-Sep-14 15:00N 32°17' W 090°55'0 0.0
2017-Sep-14 14:30N 32°17' W 090°55'0 0.0
2017-Sep-14 14:01N 32°17' W 090°55'0 0.0
2017-Sep-14 13:30N 32°17' W 090°55'0 0.0
2017-Sep-14 13:00N 32°17' W 090°55'0 0.0
2017-Sep-14 12:31N 32°17' W 090°55'0 0.0
2017-Sep-14 12:00N 32°17' W 090°55'0 0.0
2017-Sep-14 11:31N 32°17' W 090°55'0 0.0
2017-Sep-14 11:01N 32°17' W 090°55'0 0.0
2017-Sep-14 10:31N 32°17' W 090°55'0 0.0
2017-Sep-14 10:00N 32°17' W 090°55'0 0.0
2017-Sep-14 09:31N 32°17' W 090°55'0 0.0
2017-Sep-14 09:01N 32°17' W 090°55'0 0.0
2017-Sep-14 08:30N 32°17' W 090°55'0 0.0
2017-Sep-14 08:01N 32°17' W 090°55'0 0.0
2017-Sep-14 07:30N 32°17' W 090°55'0 0.0
2017-Sep-14 07:00N 32°17' W 090°55'0 0.0
2017-Sep-14 06:30N 32°17' W 090°55'0 0.0
2017-Sep-14 06:01N 32°17' W 090°55'0 0.0
2017-Sep-14 05:30N 32°17' W 090°55'0 0.0
2017-Sep-14 05:01N 32°17' W 090°55'0 0.0
2017-Sep-14 04:31N 32°17' W 090°55'0 0.0
2017-Sep-14 04:01N 32°17' W 090°55'0 0.0
2017-Sep-14 03:31N 32°17' W 090°55'0 0.0
2017-Sep-14 03:01N 32°17' W 090°55'0 0.0
2017-Sep-14 02:30N 32°17' W 090°55'0 0.0
2017-Sep-14 02:00N 32°17' W 090°55'0 0.0
2017-Sep-14 01:31N 32°17' W 090°55'0 0.0
2017-Sep-14 01:01N 32°17' W 090°55'0 0.0
2017-Sep-14 00:31N 32°17' W 090°55'0 0.0
2017-Sep-14 00:01N 32°17' W 090°55'0 0.0
2017-Sep-13 23:31N 32°17' W 090°55'0 0.0
2017-Sep-13 23:00N 32°17' W 090°55'0 0.0
2017-Sep-13 22:30N 32°17' W 090°55'0 0.0
2017-Sep-13 22:00N 32°17' W 090°55'0 0.0
2017-Sep-13 21:30N 32°17' W 090°55'0 0.0
2017-Sep-13 21:00N 32°17' W 090°55'0 0.0
2017-Sep-13 20:30N 32°17' W 090°55'0 0.0
2017-Sep-13 20:00N 32°17' W 090°55'0 0.0
2017-Sep-13 19:30N 32°17' W 090°55'0 0.7
2017-Sep-13 19:00N 32°18' W 090°55'0 0.0
2017-Sep-13 18:30N 32°18' W 090°55'0 0.1
2017-Sep-13 18:00N 32°18' W 090°55'0 0.7
2017-Sep-13 17:30N 32°17' W 090°55'0 0.0
2017-Sep-13 17:00N 32°17' W 090°55'0 0.0
2017-Sep-13 16:30N 32°17' W 090°55'0 0.0
2017-Sep-13 14:53N 32°17' W 090°55'0 0.8
2017-Sep-13 14:30N 32°18' W 090°55'0 0.7
2017-Sep-13 14:01N 32°17' W 090°55'0 0.0
2017-Sep-13 13:31N 32°17' W 090°55'0 0.5
2017-Sep-13 13:00N 32°18' W 090°55'0 0.5
2017-Sep-13 12:30N 32°17' W 090°55'0 0.0
2017-Sep-13 12:00N 32°17' W 090°55'0 0.0
2017-Sep-13 11:30N 32°17' W 090°55'0 0.0
2017-Sep-13 11:00N 32°17' W 090°55'0 0.0
2017-Sep-13 10:30N 32°17' W 090°55'0 0.0
2017-Sep-13 10:00N 32°17' W 090°55'0 0.0
2017-Sep-13 09:30N 32°17' W 090°55'0 0.0
2017-Sep-13 09:00N 32°17' W 090°55'0 0.0
2017-Sep-13 08:30N 32°17' W 090°55'0 0.0
2017-Sep-13 08:00N 32°17' W 090°55'0 0.0
2017-Sep-13 07:30N 32°17' W 090°55'0 0.0
2017-Sep-13 07:00N 32°17' W 090°55'0 0.0
2017-Sep-13 06:30N 32°17' W 090°55'0 0.0
2017-Sep-13 06:00N 32°17' W 090°55'0 0.0
2017-Sep-13 05:30N 32°17' W 090°55'0 0.0
2017-Sep-13 05:00N 32°17' W 090°55'0 0.0
2017-Sep-13 04:30N 32°17' W 090°55'0 0.0
2017-Sep-13 04:00N 32°17' W 090°55'0 0.0
2017-Sep-13 03:30N 32°17' W 090°55'0 0.0
2017-Sep-13 03:00N 32°17' W 090°55'0 0.0
2017-Sep-13 02:30N 32°17' W 090°55'0 0.0
2017-Sep-13 02:00N 32°17' W 090°55'0 0.0
2017-Sep-13 01:30N 32°17' W 090°55'0 0.0
2017-Sep-13 01:00N 32°17' W 090°55'0 0.0
2017-Sep-13 00:30N 32°17' W 090°55'0 0.0
2017-Sep-13 00:00N 32°17' W 090°55'0 0.0
2017-Sep-12 23:30N 32°17' W 090°55'0 0.0
2017-Sep-12 23:01N 32°17' W 090°55'0 0.0
2017-Sep-12 22:31N 32°17' W 090°55'0 0.5
2017-Sep-12 22:01N 32°18' W 090°55'0 0.4
2017-Sep-12 21:30N 32°17' W 090°55'0 0.1
2017-Sep-12 21:01N 32°17' W 090°55'0 0.0
2017-Sep-12 20:30N 32°17' W 090°55'0 0.0
2017-Sep-12 20:00N 32°17' W 090°55'0 0.0
2017-Sep-12 19:31N 32°17' W 090°55'0 0.0
2017-Sep-12 19:01N 32°17' W 090°55'0 0.0
2017-Sep-12 18:31N 32°17' W 090°55'0 0.0
2017-Sep-12 18:00N 32°17' W 090°55'0 0.5
2017-Sep-12 17:30N 32°18' W 090°55'0 0.0
2017-Sep-12 17:00N 32°18' W 090°55'0 0.0
2017-Sep-12 16:31N 32°18' W 090°55'0 0.4
2017-Sep-12 16:01N 32°17' W 090°55'0 0.1
2017-Sep-12 15:31N 32°17' W 090°55'0 0.0
2017-Sep-12 15:00N 32°17' W 090°55'0 0.0
2017-Sep-12 14:31N 32°17' W 090°55'0 0.0
2017-Sep-12 14:01N 32°17' W 090°55'0 0.0
2017-Sep-12 13:30N 32°17' W 090°55'0 0.0
2017-Sep-12 13:01N 32°17' W 090°55'0 0.2
2017-Sep-12 12:30N 32°18' W 090°55'0 0.2
2017-Sep-12 12:00N 32°17' W 090°55'0 0.0
2017-Sep-12 11:30N 32°17' W 090°55'0 0.0
2017-Sep-12 11:00N 32°17' W 090°55'0 0.0
2017-Sep-12 10:30N 32°17' W 090°55'0 0.0
2017-Sep-12 10:01N 32°17' W 090°55'0 0.0
2017-Sep-12 09:31N 32°17' W 090°55'0 0.0
2017-Sep-12 09:00N 32°17' W 090°55'0 0.0
2017-Sep-12 08:30N 32°17' W 090°55'0 0.0
2017-Sep-12 08:00N 32°17' W 090°55'0 0.0
2017-Sep-12 07:30N 32°17' W 090°55'0 0.0
2017-Sep-12 07:00N 32°17' W 090°55'0 0.0
2017-Sep-12 06:31N 32°17' W 090°55'0 0.0
2017-Sep-12 06:00N 32°17' W 090°55'0 0.0
2017-Sep-12 05:30N 32°17' W 090°55'0 0.0
2017-Sep-12 05:00N 32°17' W 090°55'0 0.0
2017-Sep-12 04:30N 32°17' W 090°55'0 0.0
2017-Sep-12 04:00N 32°17' W 090°55'0 0.0
2017-Sep-12 03:30N 32°17' W 090°55'0 0.0
2017-Sep-12 03:00N 32°17' W 090°55'0 0.0
2017-Sep-12 02:30N 32°17' W 090°55'0 0.0
2017-Sep-12 02:01N 32°17' W 090°55'0 0.0
2017-Sep-12 01:30N 32°17' W 090°55'0 0.0
2017-Sep-12 01:00N 32°17' W 090°55'0 0.0
2017-Sep-12 00:30N 32°17' W 090°55'0 0.0
2017-Sep-12 00:01N 32°17' W 090°55'0 0.0
2017-Sep-11 23:30N 32°17' W 090°55'0 0.0
2017-Sep-11 23:00N 32°17' W 090°55'0 0.0
2017-Sep-11 22:31N 32°17' W 090°55'0 0.1
2017-Sep-11 22:00N 32°18' W 090°55'0 0.2
2017-Sep-11 21:31N 32°18' W 090°55'0 0.3
2017-Sep-11 21:00N 32°17' W 090°55'0 0.0
2017-Sep-11 20:31N 32°17' W 090°55'0 0.0
2017-Sep-11 20:01N 32°17' W 090°55'0 0.0
2017-Sep-11 19:30N 32°17' W 090°55'0 0.2
2017-Sep-11 19:01N 32°18' W 090°55'0 0.1
2017-Sep-11 18:30N 32°18' W 090°55'0 0.0
2017-Sep-11 18:01N 32°18' W 090°55'0 0.0
2017-Sep-11 17:30N 32°18' W 090°55'0 0.3
2017-Sep-11 17:00N 32°17' W 090°55'0 0.0
2017-Sep-11 16:30N 32°17' W 090°55'0 0.0
2017-Sep-11 16:01N 32°17' W 090°55'0 0.0
2017-Sep-11 15:31N 32°17' W 090°55'0 0.0
2017-Sep-11 15:00N 32°17' W 090°55'0 0.0
2017-Sep-11 14:31N 32°17' W 090°55'0 0.5
2017-Sep-11 14:01N 32°18' W 090°55'0 0.5
2017-Sep-11 13:31N 32°17' W 090°55'0 0.0
2017-Sep-11 13:01N 32°17' W 090°55'0 0.0
2017-Sep-11 12:30N 32°17' W 090°55'0 0.0
2017-Sep-11 12:00N 32°17' W 090°55'0 0.0
2017-Sep-11 11:30N 32°17' W 090°55'0 0.0
2017-Sep-11 11:01N 32°17' W 090°55'0 0.0
2017-Sep-11 10:31N 32°17' W 090°55'0 0.0
2017-Sep-11 10:01N 32°17' W 090°55'0 0.0
2017-Sep-11 09:31N 32°17' W 090°55'0 0.0
2017-Sep-11 09:01N 32°17' W 090°55'0 0.0
2017-Sep-11 08:30N 32°17' W 090°55'0 0.0
2017-Sep-11 08:01N 32°17' W 090°55'0 0.0
2017-Sep-11 07:31N 32°17' W 090°55'0 0.0
2017-Sep-11 07:01N 32°17' W 090°55'0 0.0
2017-Sep-11 06:30N 32°17' W 090°55'0 0.0
2017-Sep-11 06:01N 32°17' W 090°55'0 0.0
2017-Sep-11 05:30N 32°17' W 090°55'0 0.0
2017-Sep-11 05:00N 32°17' W 090°55'0 0.0
2017-Sep-11 04:30N 32°17' W 090°55'0 0.0
2017-Sep-11 04:01N 32°17' W 090°55'0 0.0
2017-Sep-11 03:31N 32°17' W 090°55'0 0.0
2017-Sep-11 03:01N 32°17' W 090°55'0 0.0
2017-Sep-11 02:30N 32°17' W 090°55'0 0.0
2017-Sep-11 02:00N 32°17' W 090°55'0 0.0
2017-Sep-11 01:30N 32°17' W 090°55'0 0.0
2017-Sep-11 01:00N 32°17' W 090°55'0 0.0
2017-Sep-11 00:31N 32°17' W 090°55'0 0.0
2017-Sep-11 00:01N 32°17' W 090°55'0 0.5
2017-Sep-10 23:31N 32°18' W 090°55'0 0.5
2017-Sep-10 23:00N 32°17' W 090°55'0 0.0
2017-Sep-10 22:31N 32°17' W 090°55'0 0.0
2017-Sep-10 22:00N 32°17' W 090°55'0 0.0
2017-Sep-10 21:30N 32°17' W 090°55'0 0.0
2017-Sep-10 21:01N 32°17' W 090°55'0 0.0
2017-Sep-10 20:30N 32°17' W 090°55'0 0.4
2017-Sep-10 20:01N 32°18' W 090°55'0 0.3
2017-Sep-10 19:31N 32°17' W 090°55'0 0.0
2017-Sep-10 19:00N 32°17' W 090°55'0 0.0
2017-Sep-10 18:30N 32°17' W 090°55'0 0.0
2017-Sep-10 18:00N 32°17' W 090°55'0 0.0
2017-Sep-10 17:30N 32°17' W 090°55'0 0.0
2017-Sep-10 17:01N 32°17' W 090°55'0 0.2
2017-Sep-10 16:31N 32°18' W 090°55'0 0.1
2017-Sep-10 16:00N 32°18' W 090°55'0 0.2
2017-Sep-10 15:30N 32°17' W 090°55'0 0.1
2017-Sep-10 15:01N 32°17' W 090°55'0 0.0
2017-Sep-10 14:00N 32°17' W 090°55'0 0.0
2017-Sep-10 13:31N 32°17' W 090°55'0 0.1
2017-Sep-10 13:00N 32°17' W 090°55'0 0.0
2017-Sep-10 12:30N 32°17' W 090°55'0 0.0
2017-Sep-10 12:00N 32°17' W 090°55'0 0.0
2017-Sep-10 11:31N 32°17' W 090°55'0 0.0
2017-Sep-10 11:00N 32°17' W 090°55'0 0.0
2017-Sep-10 10:31N 32°17' W 090°55'0 0.0
2017-Sep-10 10:00N 32°17' W 090°55'0 0.0
2017-Sep-10 09:31N 32°17' W 090°55'0 0.0
2017-Sep-10 09:00N 32°17' W 090°55'0 0.0
2017-Sep-10 08:30N 32°17' W 090°55'0 0.0
2017-Sep-10 08:01N 32°17' W 090°55'0 0.0
2017-Sep-10 07:30N 32°17' W 090°55'0 0.0
2017-Sep-10 07:00N 32°17' W 090°55'0 0.0
2017-Sep-10 06:30N 32°17' W 090°55'0 0.0
2017-Sep-10 06:00N 32°17' W 090°55'0 0.0
2017-Sep-10 05:31N 32°17' W 090°55'0 0.0
2017-Sep-10 05:00N 32°17' W 090°55'0 0.0
2017-Sep-10 04:30N 32°17' W 090°55'0 0.0
2017-Sep-10 04:01N 32°17' W 090°55'0 0.0
2017-Sep-10 03:30N 32°17' W 090°55'0 0.0
2017-Sep-10 03:01N 32°17' W 090°55'0 0.0
2017-Sep-10 02:30N 32°17' W 090°55'0 0.0
2017-Sep-10 02:01N 32°17' W 090°55'0 0.0
2017-Sep-10 01:31N 32°17' W 090°55'0 0.0
2017-Sep-10 01:01N 32°17' W 090°55'0 0.0
2017-Sep-10 00:30N 32°17' W 090°55'0 0.0
2017-Sep-10 00:00N 32°17' W 090°55'0 0.0
2017-Sep-09 23:30N 32°17' W 090°55'0 0.4
2017-Sep-09 23:00N 32°18' W 090°55'0 0.1
2017-Sep-09 22:30N 32°18' W 090°55'0 0.4
2017-Sep-09 22:00N 32°17' W 090°55'0 0.0
2017-Sep-09 21:30N 32°17' W 090°55'0 0.0
2017-Sep-09 21:00N 32°17' W 090°55'0 0.0
2017-Sep-09 20:30N 32°17' W 090°55'0 0.0
2017-Sep-09 20:00N 32°17' W 090°55'0 0.5
2017-Sep-09 19:30N 32°18' W 090°55'0 0.0
2017-Sep-09 19:00N 32°18' W 090°55'0 0.5
2017-Sep-09 18:30N 32°17' W 090°55'0 0.0
2017-Sep-09 18:00N 32°17' W 090°55'0 0.0
2017-Sep-09 17:30N 32°17' W 090°55'0 0.0
2017-Sep-09 17:00N 32°17' W 090°55'0 0.0
2017-Sep-09 16:30N 32°17' W 090°55'0 0.0
2017-Sep-09 16:00N 32°17' W 090°55'0 0.0
2017-Sep-09 15:30N 32°17' W 090°55'0 0.4
2017-Sep-09 15:00N 32°18' W 090°55'0 0.3
2017-Sep-09 14:30N 32°17' W 090°55'0 0.1
2017-Sep-09 14:00N 32°17' W 090°55'0 0.0
2017-Sep-09 13:30N 32°17' W 090°55'0 0.0
2017-Sep-09 13:00N 32°17' W 090°55'0 0.0
2017-Sep-09 12:30N 32°17' W 090°55'0 0.0
2017-Sep-09 12:00N 32°17' W 090°55'0 0.4
2017-Sep-09 11:30N 32°18' W 090°55'0 0.1
2017-Sep-09 11:00N 32°18' W 090°55'0 0.3
2017-Sep-09 10:30N 32°18' W 090°55'0 0.5
2017-Sep-09 10:00N 32°17' W 090°55'0 0.0
2017-Sep-09 09:30N 32°17' W 090°55'0 0.0
2017-Sep-09 09:00N 32°17' W 090°55'0 0.0
2017-Sep-09 08:30N 32°17' W 090°55'0 0.0
2017-Sep-09 08:00N 32°17' W 090°55'0 0.0
2017-Sep-09 07:30N 32°17' W 090°55'0 0.0
2017-Sep-09 07:00N 32°17' W 090°55'0 0.0
2017-Sep-09 06:30N 32°17' W 090°55'0 0.0
2017-Sep-09 06:00N 32°17' W 090°55'0 0.0
2017-Sep-09 05:30N 32°17' W 090°55'0 0.0
2017-Sep-09 05:00N 32°17' W 090°55'0 0.0
2017-Sep-09 04:30N 32°17' W 090°55'0 0.0
2017-Sep-09 04:00N 32°17' W 090°55'0 0.0
2017-Sep-09 03:30N 32°17' W 090°55'0 0.0
2017-Sep-09 03:00N 32°17' W 090°55'0 0.0
2017-Sep-09 02:30N 32°17' W 090°55'0 0.0
2017-Sep-09 02:00N 32°17' W 090°55'0 0.0
2017-Sep-08 23:13N 32°17' W 090°55'0 0.0
2017-Sep-08 23:00N 32°17' W 090°55'0 0.0
2017-Sep-08 22:30N 32°17' W 090°55'0 0.0
2017-Sep-08 22:00N 32°17' W 090°55'0 0.0
2017-Sep-08 21:30N 32°17' W 090°55'0 0.0
2017-Sep-08 21:00N 32°17' W 090°55'0 0.0
2017-Sep-08 20:30N 32°17' W 090°55'0 0.0
2017-Sep-08 20:00N 32°17' W 090°55'0 0.0
2017-Sep-08 19:30N 32°17' W 090°55'0 0.0
2017-Sep-08 19:00N 32°17' W 090°55'0 0.0
2017-Sep-08 18:30N 32°17' W 090°55'0 0.0
2017-Sep-08 18:00N 32°17' W 090°55'0 0.0
2017-Sep-08 17:30N 32°17' W 090°55'0 0.0
2017-Sep-08 17:00N 32°17' W 090°55'0 0.0
2017-Sep-08 16:30N 32°17' W 090°55'0 0.0
2017-Sep-08 16:00N 32°17' W 090°55'0 0.0
2017-Sep-08 15:30N 32°17' W 090°55'0 0.0
2017-Sep-08 15:00N 32°17' W 090°55'0 0.0
2017-Sep-08 14:30N 32°17' W 090°55'0 0.0
2017-Sep-08 14:00N 32°17' W 090°55'0 0.0
2017-Sep-08 13:30N 32°17' W 090°55'0 0.0
2017-Sep-08 13:00N 32°17' W 090°55'0 0.0
2017-Sep-08 12:30N 32°17' W 090°55'0 0.0
2017-Sep-08 12:00N 32°17' W 090°55'0 0.0
2017-Sep-08 11:30N 32°17' W 090°55'0 0.0
2017-Sep-08 11:00N 32°17' W 090°55'0 0.0
2017-Sep-08 10:30N 32°17' W 090°55'0 0.0
2017-Sep-08 10:00N 32°17' W 090°55'0 0.0
2017-Sep-08 09:30N 32°17' W 090°55'0 0.0
2017-Sep-08 09:00N 32°17' W 090°55'0 0.0
2017-Sep-08 08:30N 32°17' W 090°55'0 0.0
2017-Sep-08 08:00N 32°17' W 090°55'0 0.0
2017-Sep-08 07:30N 32°17' W 090°55'0 0.0
2017-Sep-08 07:00N 32°17' W 090°55'0 0.0
2017-Sep-08 06:30N 32°17' W 090°55'0 0.0
2017-Sep-08 06:00N 32°17' W 090°55'0 0.0
2017-Sep-08 05:30N 32°17' W 090°55'0 0.0
2017-Sep-08 05:00N 32°17' W 090°55'0 0.0
2017-Sep-08 04:30N 32°17' W 090°55'0 0.0
2017-Sep-08 04:00N 32°17' W 090°55'0 0.0
2017-Sep-08 03:30N 32°17' W 090°55'0 0.0
2017-Sep-08 03:00N 32°17' W 090°55'0 0.0
2017-Sep-07 22:55N 32°17' W 090°55'0 0.0
2017-Sep-07 22:30N 32°17' W 090°55'0 0.0
2017-Sep-07 22:00N 32°17' W 090°55'0 0.0
2017-Sep-07 21:30N 32°17' W 090°55'0 0.0
2017-Sep-07 21:00N 32°17' W 090°55'0 0.0
2017-Sep-07 20:30N 32°17' W 090°55'0 0.0
2017-Sep-07 20:00N 32°17' W 090°55'0 0.0
2017-Sep-07 19:30N 32°17' W 090°55'0 0.0
2017-Sep-07 19:00N 32°17' W 090°55'0 0.0
2017-Sep-07 18:30N 32°17' W 090°55'0 0.0
2017-Sep-07 18:00N 32°17' W 090°55'0 0.0
2017-Sep-07 16:42N 32°17' W 090°55'0 0.0
2017-Sep-07 16:30N 32°17' W 090°55'0 0.0
2017-Sep-07 16:00N 32°17' W 090°55'0 0.0
2017-Sep-07 15:31N 32°17' W 090°55'0 0.0
2017-Sep-07 15:00N 32°17' W 090°55'0 0.0
2017-Sep-07 14:30N 32°17' W 090°55'0 0.0
2017-Sep-07 14:00N 32°17' W 090°55'0 0.0
2017-Sep-07 13:31N 32°17' W 090°55'0 0.0
2017-Sep-07 13:00N 32°17' W 090°55'0 0.0
2017-Sep-07 12:30N 32°17' W 090°55'0 0.0
2017-Sep-07 12:00N 32°17' W 090°55'0 0.0
2017-Sep-07 11:30N 32°17' W 090°55'0 0.0
2017-Sep-07 11:01N 32°17' W 090°55'0 0.0
2017-Sep-07 10:30N 32°17' W 090°55'0 0.0
2017-Sep-07 10:00N 32°17' W 090°55'0 0.0
2017-Sep-07 09:30N 32°17' W 090°55'0 0.0
2017-Sep-07 09:00N 32°17' W 090°55'0 0.0
2017-Sep-07 08:30N 32°17' W 090°55'0 0.0
2017-Sep-07 08:00N 32°17' W 090°55'0 0.0
2017-Sep-07 07:30N 32°17' W 090°55'0 0.0
2017-Sep-07 07:00N 32°17' W 090°55'0 0.0
2017-Sep-07 06:30N 32°17' W 090°55'0 0.0
2017-Sep-07 06:00N 32°17' W 090°55'0 0.0
2017-Sep-07 05:30N 32°17' W 090°55'0 0.0
2017-Sep-07 05:00N 32°17' W 090°55'0 0.0
2017-Sep-07 04:30N 32°17' W 090°55'0 0.0
2017-Sep-07 04:00N 32°17' W 090°55'0 0.0
2017-Sep-07 03:30N 32°17' W 090°55'0 0.0
2017-Sep-07 03:00N 32°17' W 090°55'0 0.0
2017-Sep-07 02:30N 32°17' W 090°55'0 0.0
2017-Sep-07 02:00N 32°17' W 090°55'0 0.0
2017-Sep-07 01:30N 32°17' W 090°55'0 0.0
2017-Sep-07 01:00N 32°17' W 090°55'0 0.0
2017-Sep-07 00:31N 32°17' W 090°55'0 0.0
2017-Sep-07 00:00N 32°17' W 090°55'0 0.0
2017-Sep-06 23:31N 32°17' W 090°55'0 0.0
2017-Sep-06 23:00N 32°17' W 090°55'0 0.0
2017-Sep-06 22:30N 32°17' W 090°55'0 0.0
2017-Sep-06 22:00N 32°17' W 090°55'0 0.0
2017-Sep-06 21:30N 32°17' W 090°55'0 0.0
2017-Sep-06 21:00N 32°17' W 090°55'0 0.0
2017-Sep-06 20:30N 32°17' W 090°55'0 0.0
2017-Sep-06 20:00N 32°17' W 090°55'0 0.0
2017-Sep-06 19:30N 32°17' W 090°55'0 0.0
2017-Sep-06 19:00N 32°17' W 090°55'0 0.0
2017-Sep-06 18:30N 32°17' W 090°55'0 0.0
2017-Sep-06 18:00N 32°17' W 090°55'0 0.0
2017-Sep-06 17:30N 32°17' W 090°55'0 0.0
2017-Sep-06 17:00N 32°17' W 090°55'0 0.0
2017-Sep-06 16:30N 32°17' W 090°55'0 0.0
2017-Sep-06 16:00N 32°17' W 090°55'0 0.0
2017-Sep-06 15:30N 32°17' W 090°55'0 0.0
2017-Sep-06 15:00N 32°17' W 090°55'0 0.0
2017-Sep-06 14:31N 32°17' W 090°55'0 0.0
2017-Sep-06 14:01N 32°17' W 090°55'0 0.0
2017-Sep-06 13:31N 32°17' W 090°55'0 0.0
2017-Sep-06 13:01N 32°17' W 090°55'0 0.0
2017-Sep-06 12:31N 32°17' W 090°55'0 0.0
2017-Sep-06 12:01N 32°17' W 090°55'0 0.0
2017-Sep-06 11:31N 32°17' W 090°55'0 0.0
2017-Sep-06 11:01N 32°17' W 090°55'0 0.0
2017-Sep-06 10:31N 32°17' W 090°55'0 0.0
2017-Sep-06 10:01N 32°17' W 090°55'0 0.0
2017-Sep-06 09:31N 32°17' W 090°55'0 0.0
2017-Sep-06 09:01N 32°17' W 090°55'0 0.0
2017-Sep-06 08:31N 32°17' W 090°55'0 0.0
2017-Sep-06 08:01N 32°17' W 090°55'0 0.0
2017-Sep-06 07:31N 32°17' W 090°55'0 0.0
2017-Sep-06 07:01N 32°17' W 090°55'0 0.0
2017-Sep-06 06:31N 32°17' W 090°55'0 0.0
2017-Sep-06 06:01N 32°17' W 090°55'0 0.0
2017-Sep-06 05:30N 32°17' W 090°55'0 0.0
2017-Sep-06 05:01N 32°17' W 090°55'0 0.0
2017-Sep-06 04:31N 32°17' W 090°55'0 0.0
2017-Sep-06 04:01N 32°17' W 090°55'0 0.0
2017-Sep-06 03:31N 32°17' W 090°55'0 0.0
2017-Sep-06 03:01N 32°17' W 090°55'  
Track history (hours):
 
Tides and Currents Weather Stations Pressure Air Temp Water Temp Dewpoint Dewpoint Depression Visibility Wind Speed Wind Dir Waves Ship Positions

Joe Clay Davis

Owner: CPD, Inc., Friars Point, MS. More information available from US FCC via Universal Licensing System and Coast Guard Vessel Documentation Center.

Last reported at 2017-Sep-16 02:46 UTC. Time now 2017-Nov-19 16:21 UTC.
Position N 32°41' W 091°04'.
Warning: this ship's position is months out of date.

Length 21 m; draft 2.5 m.

Type: Towing. MMSI: 367482910.

Date/timePositionNaut miles runAvg speedWind from/ knotsBaromVisibWave heightAir tempDewpointWater temp
2017-Sep-16 02:46N 32°41' W 091°04'0 0.6
2017-Sep-16 02:06N 32°41' W 091°04'1 4.4
2017-Sep-16 01:50N 32°41' W 091°06'1 3.9
2017-Sep-16 01:30N 32°40' W 091°07'2 3.1
2017-Sep-16 00:58N 32°39' W 091°09'2 3.8
2017-Sep-16 00:30N 32°37' W 091°09'1 2.5
2017-Sep-16 00:00N 32°36' W 091°09'2 4.0
2017-Sep-15 23:30N 32°35' W 091°07'2 3.2
2017-Sep-15 23:00N 32°34' W 091°06'2 4.2
2017-Sep-15 22:30N 32°31' W 091°06'2 4.6
2017-Sep-15 22:00N 32°29' W 091°07'2 4.5
2017-Sep-15 21:30N 32°27' W 091°05'2 4.5
2017-Sep-15 21:00N 32°26' W 091°03'2 4.4
2017-Sep-15 20:30N 32°25' W 091°00'2 3.7
2017-Sep-15 20:00N 32°24' W 090°60'2 4.4
2017-Sep-15 19:30N 32°22' W 091°00'2 4.5
2017-Sep-15 19:00N 32°21' W 090°57'2 4.2
2017-Sep-15 18:30N 32°20' W 090°55'2 3.5
2017-Sep-15 18:00N 32°19' W 090°54'2 3.2
2017-Sep-15 17:30N 32°17' W 090°55'0 0.1
2017-Sep-15 17:00N 32°17' W 090°55'0 0.0
2017-Sep-15 16:30N 32°17' W 090°55'0 0.0
2017-Sep-15 16:00N 32°17' W 090°55'0 0.0
2017-Sep-15 15:30N 32°17' W 090°55'0 0.0
2017-Sep-15 15:00N 32°17' W 090°55'0 0.0
2017-Sep-15 14:30N 32°17' W 090°55'0 0.0
2017-Sep-15 14:00N 32°17' W 090°55'0 0.0
2017-Sep-15 13:30N 32°17' W 090°55'0 0.0
2017-Sep-15 13:00N 32°17' W 090°55'0 0.0
2017-Sep-15 12:30N 32°17' W 090°55'0 0.0
2017-Sep-15 12:00N 32°17' W 090°55'0 0.0
2017-Sep-15 11:30N 32°17' W 090°55'0 0.0
2017-Sep-15 11:00N 32°17' W 090°55'0 0.0
2017-Sep-15 10:30N 32°17' W 090°55'0 0.0
2017-Sep-15 10:00N 32°17' W 090°55'0 0.0
2017-Sep-15 09:30N 32°17' W 090°55'0 0.0
2017-Sep-15 09:00N 32°17' W 090°55'0 0.0
2017-Sep-15 08:30N 32°17' W 090°55'0 0.0
2017-Sep-15 08:00N 32°17' W 090°55'0 0.0
2017-Sep-15 07:30N 32°17' W 090°55'0 0.0
2017-Sep-15 07:00N 32°17' W 090°55'0 0.0
2017-Sep-15 06:30N 32°17' W 090°55'0 0.0
2017-Sep-15 06:00N 32°17' W 090°55'0 0.0
2017-Sep-15 05:30N 32°17' W 090°55'0 0.0
2017-Sep-15 05:00N 32°17' W 090°55'0 0.0
2017-Sep-15 04:30N 32°17' W 090°55'0 0.0
2017-Sep-15 04:00N 32°17' W 090°55'0 0.0
2017-Sep-15 03:30N 32°17' W 090°55'0 0.0
2017-Sep-15 03:00N 32°17' W 090°55'0 0.0
2017-Sep-15 02:30N 32°17' W 090°55'0 0.0
2017-Sep-15 02:00N 32°17' W 090°55'0 0.0
2017-Sep-15 01:30N 32°17' W 090°55'0 0.0
2017-Sep-15 01:00N 32°17' W 090°55'0 0.0
2017-Sep-15 00:30N 32°17' W 090°55'0 0.0
2017-Sep-15 00:00N 32°17' W 090°55'0 0.0
2017-Sep-14 23:30N 32°17' W 090°55'0 0.0
2017-Sep-14 23:00N 32°17' W 090°55'0 0.0
2017-Sep-14 22:30N 32°17' W 090°55'0 0.0
2017-Sep-14 22:00N 32°17' W 090°55'0 0.0
2017-Sep-14 21:30N 32°17' W 090°55'0 0.0
2017-Sep-14 21:00N 32°17' W 090°55'0 0.0
2017-Sep-14 20:30N 32°17' W 090°55'0 0.0
2017-Sep-14 20:00N 32°17' W 090°55'0 0.0
2017-Sep-14 18:38N 32°17' W 090°55'0 0.1
2017-Sep-14 18:30N 32°17' W 090°55'0 0.0
2017-Sep-14 18:00N 32°17' W 090°55'0 0.0
2017-Sep-14 17:09N 32°17' W 090°55'0 0.0
2017-Sep-14 17:00N 32°17' W 090°55'0 0.0
2017-Sep-14 16:30N 32°17' W 090°55'0 0.0
2017-Sep-14 16:00N 32°17' W 090°55'0 0.0
2017-Sep-14 15:30N 32°17' W 090°55'0 0.0
2017-Sep-14 15:00N 32°17' W 090°55'0 0.0
2017-Sep-14 14:30N 32°17' W 090°55'0 0.0
2017-Sep-14 14:01N 32°17' W 090°55'0 0.0
2017-Sep-14 13:30N 32°17' W 090°55'0 0.0
2017-Sep-14 13:00N 32°17' W 090°55'0 0.0
2017-Sep-14 12:31N 32°17' W 090°55'0 0.0
2017-Sep-14 12:00N 32°17' W 090°55'0 0.0
2017-Sep-14 11:31N 32°17' W 090°55'0 0.0
2017-Sep-14 11:01N 32°17' W 090°55'0 0.0
2017-Sep-14 10:31N 32°17' W 090°55'0 0.0
2017-Sep-14 10:00N 32°17' W 090°55'0 0.0
2017-Sep-14 09:31N 32°17' W 090°55'0 0.0
2017-Sep-14 09:01N 32°17' W 090°55'0 0.0
2017-Sep-14 08:30N 32°17' W 090°55'0 0.0
2017-Sep-14 08:01N 32°17' W 090°55'0 0.0
2017-Sep-14 07:30N 32°17' W 090°55'0 0.0
2017-Sep-14 07:00N 32°17' W 090°55'0 0.0
2017-Sep-14 06:30N 32°17' W 090°55'0 0.0
2017-Sep-14 06:01N 32°17' W 090°55'0 0.0
2017-Sep-14 05:30N 32°17' W 090°55'0 0.0
2017-Sep-14 05:01N 32°17' W 090°55'0 0.0
2017-Sep-14 04:31N 32°17' W 090°55'0 0.0
2017-Sep-14 04:01N 32°17' W 090°55'0 0.0
2017-Sep-14 03:31N 32°17' W 090°55'0 0.0
2017-Sep-14 03:01N 32°17' W 090°55'0 0.0
2017-Sep-14 02:30N 32°17' W 090°55'0 0.0
2017-Sep-14 02:00N 32°17' W 090°55'0 0.0
2017-Sep-14 01:31N 32°17' W 090°55'0 0.0
2017-Sep-14 01:01N 32°17' W 090°55'0 0.0
2017-Sep-14 00:31N 32°17' W 090°55'0 0.0
2017-Sep-14 00:01N 32°17' W 090°55'0 0.0
2017-Sep-13 23:31N 32°17' W 090°55'0 0.0
2017-Sep-13 23:00N 32°17' W 090°55'0 0.0
2017-Sep-13 22:30N 32°17' W 090°55'0 0.0
2017-Sep-13 22:00N 32°17' W 090°55'0 0.0
2017-Sep-13 21:30N 32°17' W 090°55'0 0.0
2017-Sep-13 21:00N 32°17' W 090°55'0 0.0
2017-Sep-13 20:30N 32°17' W 090°55'0 0.0
2017-Sep-13 20:00N 32°17' W 090°55'0 0.0
2017-Sep-13 19:30N 32°17' W 090°55'0 0.7
2017-Sep-13 19:00N 32°18' W 090°55'0 0.0
2017-Sep-13 18:30N 32°18' W 090°55'0 0.1
2017-Sep-13 18:00N 32°18' W 090°55'0 0.7
2017-Sep-13 17:30N 32°17' W 090°55'0 0.0
2017-Sep-13 17:00N 32°17' W 090°55'0 0.0
2017-Sep-13 16:30N 32°17' W 090°55'0 0.0
2017-Sep-13 14:53N 32°17' W 090°55'0 0.8
2017-Sep-13 14:30N 32°18' W 090°55'0 0.7
2017-Sep-13 14:01N 32°17' W 090°55'0 0.0
2017-Sep-13 13:31N 32°17' W 090°55'0 0.5
2017-Sep-13 13:00N 32°18' W 090°55'0 0.5
2017-Sep-13 12:30N 32°17' W 090°55'0 0.0
2017-Sep-13 12:00N 32°17' W 090°55'0 0.0
2017-Sep-13 11:30N 32°17' W 090°55'0 0.0
2017-Sep-13 11:00N 32°17' W 090°55'0 0.0
2017-Sep-13 10:30N 32°17' W 090°55'0 0.0
2017-Sep-13 10:00N 32°17' W 090°55'0 0.0
2017-Sep-13 09:30N 32°17' W 090°55'0 0.0
2017-Sep-13 09:00N 32°17' W 090°55'0 0.0
2017-Sep-13 08:30N 32°17' W 090°55'0 0.0
2017-Sep-13 08:00N 32°17' W 090°55'0 0.0
2017-Sep-13 07:30N 32°17' W 090°55'0 0.0
2017-Sep-13 07:00N 32°17' W 090°55'0 0.0
2017-Sep-13 06:30N 32°17' W 090°55'0 0.0
2017-Sep-13 06:00N 32°17' W 090°55'0 0.0
2017-Sep-13 05:30N 32°17' W 090°55'0 0.0
2017-Sep-13 05:00N 32°17' W 090°55'0 0.0
2017-Sep-13 04:30N 32°17' W 090°55'0 0.0
2017-Sep-13 04:00N 32°17' W 090°55'0 0.0
2017-Sep-13 03:30N 32°17' W 090°55'0 0.0
2017-Sep-13 03:00N 32°17' W 090°55'0 0.0
2017-Sep-13 02:30N 32°17' W 090°55'0 0.0
2017-Sep-13 02:00N 32°17' W 090°55'0 0.0
2017-Sep-13 01:30N 32°17' W 090°55'0 0.0
2017-Sep-13 01:00N 32°17' W 090°55'0 0.0
2017-Sep-13 00:30N 32°17' W 090°55'0 0.0
2017-Sep-13 00:00N 32°17' W 090°55'0 0.0
2017-Sep-12 23:30N 32°17' W 090°55'0 0.0
2017-Sep-12 23:01N 32°17' W 090°55'0 0.0
2017-Sep-12 22:31N 32°17' W 090°55'0 0.5
2017-Sep-12 22:01N 32°18' W 090°55'0 0.4
2017-Sep-12 21:30N 32°17' W 090°55'0 0.1
2017-Sep-12 21:01N 32°17' W 090°55'0 0.0
2017-Sep-12 20:30N 32°17' W 090°55'0 0.0
2017-Sep-12 20:00N 32°17' W 090°55'0 0.0
2017-Sep-12 19:31N 32°17' W 090°55'0 0.0
2017-Sep-12 19:01N 32°17' W 090°55'0 0.0
2017-Sep-12 18:31N 32°17' W 090°55'0 0.0
2017-Sep-12 18:00N 32°17' W 090°55'0 0.5
2017-Sep-12 17:30N 32°18' W 090°55'0 0.0
2017-Sep-12 17:00N 32°18' W 090°55'0 0.0
2017-Sep-12 16:31N 32°18' W 090°55'0 0.4
2017-Sep-12 16:01N 32°17' W 090°55'0 0.1
2017-Sep-12 15:31N 32°17' W 090°55'0 0.0
2017-Sep-12 15:00N 32°17' W 090°55'0 0.0
2017-Sep-12 14:31N 32°17' W 090°55'0 0.0
2017-Sep-12 14:01N 32°17' W 090°55'0 0.0
2017-Sep-12 13:30N 32°17' W 090°55'0 0.0
2017-Sep-12 13:01N 32°17' W 090°55'0 0.2
2017-Sep-12 12:30N 32°18' W 090°55'0 0.2
2017-Sep-12 12:00N 32°17' W 090°55'0 0.0
2017-Sep-12 11:30N 32°17' W 090°55'0 0.0
2017-Sep-12 11:00N 32°17' W 090°55'0 0.0
2017-Sep-12 10:30N 32°17' W 090°55'0 0.0
2017-Sep-12 10:01N 32°17' W 090°55'0 0.0
2017-Sep-12 09:31N 32°17' W 090°55'0 0.0
2017-Sep-12 09:00N 32°17' W 090°55'0 0.0
2017-Sep-12 08:30N 32°17' W 090°55'0 0.0
2017-Sep-12 08:00N 32°17' W 090°55'0 0.0
2017-Sep-12 07:30N 32°17' W 090°55'0 0.0
2017-Sep-12 07:00N 32°17' W 090°55'0 0.0
2017-Sep-12 06:31N 32°17' W 090°55'0 0.0
2017-Sep-12 06:00N 32°17' W 090°55'0 0.0
2017-Sep-12 05:30N 32°17' W 090°55'0 0.0
2017-Sep-12 05:00N 32°17' W 090°55'0 0.0
2017-Sep-12 04:30N 32°17' W 090°55'0 0.0
2017-Sep-12 04:00N 32°17' W 090°55'0 0.0
2017-Sep-12 03:30N 32°17' W 090°55'0 0.0
2017-Sep-12 03:00N 32°17' W 090°55'0 0.0
2017-Sep-12 02:30N 32°17' W 090°55'0 0.0
2017-Sep-12 02:01N 32°17' W 090°55'0 0.0
2017-Sep-12 01:30N 32°17' W 090°55'0 0.0
2017-Sep-12 01:00N 32°17' W 090°55'0 0.0
2017-Sep-12 00:30N 32°17' W 090°55'0 0.0
2017-Sep-12 00:01N 32°17' W 090°55'0 0.0
2017-Sep-11 23:30N 32°17' W 090°55'0 0.0
2017-Sep-11 23:00N 32°17' W 090°55'0 0.0
2017-Sep-11 22:31N 32°17' W 090°55'0 0.1
2017-Sep-11 22:00N 32°18' W 090°55'0 0.2
2017-Sep-11 21:31N 32°18' W 090°55'0 0.3
2017-Sep-11 21:00N 32°17' W 090°55'0 0.0
2017-Sep-11 20:31N 32°17' W 090°55'0 0.0
2017-Sep-11 20:01N 32°17' W 090°55'0 0.0
2017-Sep-11 19:30N 32°17' W 090°55'0 0.2
2017-Sep-11 19:01N 32°18' W 090°55'0 0.1
2017-Sep-11 18:30N 32°18' W 090°55'0 0.0
2017-Sep-11 18:01N 32°18' W 090°55'0 0.0
2017-Sep-11 17:30N 32°18' W 090°55'0 0.3
2017-Sep-11 17:00N 32°17' W 090°55'0 0.0
2017-Sep-11 16:30N 32°17' W 090°55'0 0.0
2017-Sep-11 16:01N 32°17' W 090°55'0 0.0
2017-Sep-11 15:31N 32°17' W 090°55'0 0.0
2017-Sep-11 15:00N 32°17' W 090°55'0 0.0
2017-Sep-11 14:31N 32°17' W 090°55'0 0.5
2017-Sep-11 14:01N 32°18' W 090°55'0 0.5
2017-Sep-11 13:31N 32°17' W 090°55'0 0.0
2017-Sep-11 13:01N 32°17' W 090°55'0 0.0
2017-Sep-11 12:30N 32°17' W 090°55'0 0.0
2017-Sep-11 12:00N 32°17' W 090°55'0 0.0
2017-Sep-11 11:30N 32°17' W 090°55'0 0.0
2017-Sep-11 11:01N 32°17' W 090°55'0 0.0
2017-Sep-11 10:31N 32°17' W 090°55'0 0.0
2017-Sep-11 10:01N 32°17' W 090°55'0 0.0
2017-Sep-11 09:31N 32°17' W 090°55'0 0.0
2017-Sep-11 09:01N 32°17' W 090°55'0 0.0
2017-Sep-11 08:30N 32°17' W 090°55'0 0.0
2017-Sep-11 08:01N 32°17' W 090°55'0 0.0
2017-Sep-11 07:31N 32°17' W 090°55'0 0.0
2017-Sep-11 07:01N 32°17' W 090°55'0 0.0
2017-Sep-11 06:30N 32°17' W 090°55'0 0.0
2017-Sep-11 06:01N 32°17' W 090°55'0 0.0
2017-Sep-11 05:30N 32°17' W 090°55'0 0.0
2017-Sep-11 05:00N 32°17' W 090°55'0 0.0
2017-Sep-11 04:30N 32°17' W 090°55'0 0.0
2017-Sep-11 04:01N 32°17' W 090°55'0 0.0
2017-Sep-11 03:31N 32°17' W 090°55'0 0.0
2017-Sep-11 03:01N 32°17' W 090°55'0 0.0
2017-Sep-11 02:30N 32°17' W 090°55'0 0.0
2017-Sep-11 02:00N 32°17' W 090°55'0 0.0
2017-Sep-11 01:30N 32°17' W 090°55'0 0.0
2017-Sep-11 01:00N 32°17' W 090°55'0 0.0
2017-Sep-11 00:31N 32°17' W 090°55'0 0.0
2017-Sep-11 00:01N 32°17' W 090°55'0 0.5
2017-Sep-10 23:31N 32°18' W 090°55'0 0.5
2017-Sep-10 23:00N 32°17' W 090°55'0 0.0
2017-Sep-10 22:31N 32°17' W 090°55'0 0.0
2017-Sep-10 22:00N 32°17' W 090°55'0 0.0
2017-Sep-10 21:30N 32°17' W 090°55'0 0.0
2017-Sep-10 21:01N 32°17' W 090°55'0 0.0
2017-Sep-10 20:30N 32°17' W 090°55'0 0.4
2017-Sep-10 20:01N 32°18' W 090°55'0 0.3
2017-Sep-10 19:31N 32°17' W 090°55'0 0.0
2017-Sep-10 19:00N 32°17' W 090°55'0 0.0
2017-Sep-10 18:30N 32°17' W 090°55'0 0.0
2017-Sep-10 18:00N 32°17' W 090°55'0 0.0
2017-Sep-10 17:30N 32°17' W 090°55'0 0.0
2017-Sep-10 17:01N 32°17' W 090°55'0 0.2
2017-Sep-10 16:31N 32°18' W 090°55'0 0.1
2017-Sep-10 16:00N 32°18' W 090°55'0 0.2
2017-Sep-10 15:30N 32°17' W 090°55'0 0.1
2017-Sep-10 15:01N 32°17' W 090°55'0 0.0
2017-Sep-10 14:00N 32°17' W 090°55'0 0.0
2017-Sep-10 13:31N 32°17' W 090°55'0 0.1
2017-Sep-10 13:00N 32°17' W 090°55'0 0.0
2017-Sep-10 12:30N 32°17' W 090°55'0 0.0
2017-Sep-10 12:00N 32°17' W 090°55'0 0.0
2017-Sep-10 11:31N 32°17' W 090°55'0 0.0
2017-Sep-10 11:00N 32°17' W 090°55'0 0.0
2017-Sep-10 10:31N 32°17' W 090°55'0 0.0
2017-Sep-10 10:00N 32°17' W 090°55'0 0.0
2017-Sep-10 09:31N 32°17' W 090°55'0 0.0
2017-Sep-10 09:00N 32°17' W 090°55'0 0.0
2017-Sep-10 08:30N 32°17' W 090°55'0 0.0
2017-Sep-10 08:01N 32°17' W 090°55'0 0.0
2017-Sep-10 07:30N 32°17' W 090°55'0 0.0
2017-Sep-10 07:00N 32°17' W 090°55'0 0.0
2017-Sep-10 06:30N 32°17' W 090°55'0 0.0
2017-Sep-10 06:00N 32°17' W 090°55'0 0.0
2017-Sep-10 05:31N 32°17' W 090°55'0 0.0
2017-Sep-10 05:00N 32°17' W 090°55'0 0.0
2017-Sep-10 04:30N 32°17' W 090°55'0 0.0
2017-Sep-10 04:01N 32°17' W 090°55'0 0.0
2017-Sep-10 03:30N 32°17' W 090°55'0 0.0
2017-Sep-10 03:01N 32°17' W 090°55'0 0.0
2017-Sep-10 02:30N 32°17' W 090°55'0 0.0
2017-Sep-10 02:01N 32°17' W 090°55'0 0.0
2017-Sep-10 01:31N 32°17' W 090°55'0 0.0
2017-Sep-10 01:01N 32°17' W 090°55'0 0.0
2017-Sep-10 00:30N 32°17' W 090°55'0 0.0
2017-Sep-10 00:00N 32°17' W 090°55'0 0.0
2017-Sep-09 23:30N 32°17' W 090°55'0 0.4
2017-Sep-09 23:00N 32°18' W 090°55'0 0.1
2017-Sep-09 22:30N 32°18' W 090°55'0 0.4
2017-Sep-09 22:00N 32°17' W 090°55'0 0.0
2017-Sep-09 21:30N 32°17' W 090°55'0 0.0
2017-Sep-09 21:00N 32°17' W 090°55'0 0.0
2017-Sep-09 20:30N 32°17' W 090°55'0 0.0
2017-Sep-09 20:00N 32°17' W 090°55'0 0.5
2017-Sep-09 19:30N 32°18' W 090°55'0 0.0
2017-Sep-09 19:00N 32°18' W 090°55'0 0.5
2017-Sep-09 18:30N 32°17' W 090°55'0 0.0
2017-Sep-09 18:00N 32°17' W 090°55'0 0.0
2017-Sep-09 17:30N 32°17' W 090°55'0 0.0
2017-Sep-09 17:00N 32°17' W 090°55'0 0.0
2017-Sep-09 16:30N 32°17' W 090°55'0 0.0
2017-Sep-09 16:00N 32°17' W 090°55'0 0.0
2017-Sep-09 15:30N 32°17' W 090°55'0 0.4
2017-Sep-09 15:00N 32°18' W 090°55'0 0.3
2017-Sep-09 14:30N 32°17' W 090°55'0 0.1
2017-Sep-09 14:00N 32°17' W 090°55'0 0.0
2017-Sep-09 13:30N 32°17' W 090°55'0 0.0
2017-Sep-09 13:00N 32°17' W 090°55'0 0.0
2017-Sep-09 12:30N 32°17' W 090°55'0 0.0
2017-Sep-09 12:00N 32°17' W 090°55'0 0.4
2017-Sep-09 11:30N 32°18' W 090°55'0 0.1
2017-Sep-09 11:00N 32°18' W 090°55'0 0.3
2017-Sep-09 10:30N 32°18' W 090°55'0 0.5
2017-Sep-09 10:00N 32°17' W 090°55'0 0.0
2017-Sep-09 09:30N 32°17' W 090°55'0 0.0
2017-Sep-09 09:00N 32°17' W 090°55'0 0.0
2017-Sep-09 08:30N 32°17' W 090°55'0 0.0
2017-Sep-09 08:00N 32°17' W 090°55'0 0.0
2017-Sep-09 07:30N 32°17' W 090°55'0 0.0
2017-Sep-09 07:00N 32°17' W 090°55'0 0.0
2017-Sep-09 06:30N 32°17' W 090°55'0 0.0
2017-Sep-09 06:00N 32°17' W 090°55'0 0.0
2017-Sep-09 05:30N 32°17' W 090°55'0 0.0
2017-Sep-09 05:00N 32°17' W 090°55'0 0.0
2017-Sep-09 04:30N 32°17' W 090°55'0 0.0
2017-Sep-09 04:00N 32°17' W 090°55'0 0.0
2017-Sep-09 03:30N 32°17' W 090°55'0 0.0
2017-Sep-09 03:00N 32°17' W 090°55'0 0.0
2017-Sep-09 02:30N 32°17' W 090°55'0 0.0
2017-Sep-09 02:00N 32°17' W 090°55'0 0.0
2017-Sep-08 23:13N 32°17' W 090°55'0 0.0
2017-Sep-08 23:00N 32°17' W 090°55'0 0.0
2017-Sep-08 22:30N 32°17' W 090°55'0 0.0
2017-Sep-08 22:00N 32°17' W 090°55'0 0.0
2017-Sep-08 21:30N 32°17' W 090°55'0 0.0
2017-Sep-08 21:00N 32°17' W 090°55'0 0.0
2017-Sep-08 20:30N 32°17' W 090°55'0 0.0
2017-Sep-08 20:00N 32°17' W 090°55'0 0.0
2017-Sep-08 19:30N 32°17' W 090°55'0 0.0
2017-Sep-08 19:00N 32°17' W 090°55'0 0.0
2017-Sep-08 18:30N 32°17' W 090°55'0 0.0
2017-Sep-08 18:00N 32°17' W 090°55'0 0.0
2017-Sep-08 17:30N 32°17' W 090°55'0 0.0
2017-Sep-08 17:00N 32°17' W 090°55'0 0.0
2017-Sep-08 16:30N 32°17' W 090°55'0 0.0
2017-Sep-08 16:00N 32°17' W 090°55'0 0.0
2017-Sep-08 15:30N 32°17' W 090°55'0 0.0
2017-Sep-08 15:00N 32°17' W 090°55'0 0.0
2017-Sep-08 14:30N 32°17' W 090°55'0 0.0
2017-Sep-08 14:00N 32°17' W 090°55'0 0.0
2017-Sep-08 13:30N 32°17' W 090°55'0 0.0
2017-Sep-08 13:00N 32°17' W 090°55'0 0.0
2017-Sep-08 12:30N 32°17' W 090°55'0 0.0
2017-Sep-08 12:00N 32°17' W 090°55'0 0.0
2017-Sep-08 11:30N 32°17' W 090°55'0 0.0
2017-Sep-08 11:00N 32°17' W 090°55'0 0.0
2017-Sep-08 10:30N 32°17' W 090°55'0 0.0
2017-Sep-08 10:00N 32°17' W 090°55'0 0.0
2017-Sep-08 09:30N 32°17' W 090°55'0 0.0
2017-Sep-08 09:00N 32°17' W 090°55'0 0.0
2017-Sep-08 08:30N 32°17' W 090°55'0 0.0
2017-Sep-08 08:00N 32°17' W 090°55'0 0.0
2017-Sep-08 07:30N 32°17' W 090°55'0 0.0
2017-Sep-08 07:00N 32°17' W 090°55'0 0.0
2017-Sep-08 06:30N 32°17' W 090°55'0 0.0
2017-Sep-08 06:00N 32°17' W 090°55'0 0.0
2017-Sep-08 05:30N 32°17' W 090°55'0 0.0
2017-Sep-08 05:00N 32°17' W 090°55'0 0.0
2017-Sep-08 04:30N 32°17' W 090°55'0 0.0
2017-Sep-08 04:00N 32°17' W 090°55'0 0.0
2017-Sep-08 03:30N 32°17' W 090°55'0 0.0
2017-Sep-08 03:00N 32°17' W 090°55'0 0.0
2017-Sep-07 22:55N 32°17' W 090°55'0 0.0
2017-Sep-07 22:30N 32°17' W 090°55'0 0.0
2017-Sep-07 22:00N 32°17' W 090°55'0 0.0
2017-Sep-07 21:30N 32°17' W 090°55'0 0.0
2017-Sep-07 21:00N 32°17' W 090°55'0 0.0
2017-Sep-07 20:30N 32°17' W 090°55'0 0.0
2017-Sep-07 20:00N 32°17' W 090°55'0 0.0
2017-Sep-07 19:30N 32°17' W 090°55'0 0.0
2017-Sep-07 19:00N 32°17' W 090°55'0 0.0
2017-Sep-07 18:30N 32°17' W 090°55'0 0.0
2017-Sep-07 18:00N 32°17' W 090°55'0 0.0
2017-Sep-07 16:42N 32°17' W 090°55'0 0.0
2017-Sep-07 16:30N 32°17' W 090°55'0 0.0
2017-Sep-07 16:00N 32°17' W 090°55'0 0.0
2017-Sep-07 15:31N 32°17' W 090°55'0 0.0
2017-Sep-07 15:00N 32°17' W 090°55'0 0.0
2017-Sep-07 14:30N 32°17' W 090°55'0 0.0
2017-Sep-07 14:00N 32°17' W 090°55'0 0.0
2017-Sep-07 13:31N 32°17' W 090°55'0 0.0
2017-Sep-07 13:00N 32°17' W 090°55'0 0.0
2017-Sep-07 12:30N 32°17' W 090°55'0 0.0
2017-Sep-07 12:00N 32°17' W 090°55'0 0.0
2017-Sep-07 11:30N 32°17' W 090°55'0 0.0
2017-Sep-07 11:01N 32°17' W 090°55'0 0.0
2017-Sep-07 10:30N 32°17' W 090°55'0 0.0
2017-Sep-07 10:00N 32°17' W 090°55'0 0.0
2017-Sep-07 09:30N 32°17' W 090°55'0 0.0
2017-Sep-07 09:00N 32°17' W 090°55'0 0.0
2017-Sep-07 08:30N 32°17' W 090°55'0 0.0
2017-Sep-07 08:00N 32°17' W 090°55'0 0.0
2017-Sep-07 07:30N 32°17' W 090°55'0 0.0
2017-Sep-07 07:00N 32°17' W 090°55'0 0.0
2017-Sep-07 06:30N 32°17' W 090°55'0 0.0
2017-Sep-07 06:00N 32°17' W 090°55'0 0.0
2017-Sep-07 05:30N 32°17' W 090°55'0 0.0
2017-Sep-07 05:00N 32°17' W 090°55'0 0.0
2017-Sep-07 04:30N 32°17' W 090°55'0 0.0
2017-Sep-07 04:00N 32°17' W 090°55'0 0.0
2017-Sep-07 03:30N 32°17' W 090°55'0 0.0
2017-Sep-07 03:00N 32°17' W 090°55'0 0.0
2017-Sep-07 02:30N 32°17' W 090°55'0 0.0
2017-Sep-07 02:00N 32°17' W 090°55'0 0.0
2017-Sep-07 01:30N 32°17' W 090°55'0 0.0
2017-Sep-07 01:00N 32°17' W 090°55'0 0.0
2017-Sep-07 00:31N 32°17' W 090°55'0 0.0
2017-Sep-07 00:00N 32°17' W 090°55'0 0.0
2017-Sep-06 23:31N 32°17' W 090°55'0 0.0
2017-Sep-06 23:00N 32°17' W 090°55'0 0.0
2017-Sep-06 22:30N 32°17' W 090°55'0 0.0
2017-Sep-06 22:00N 32°17' W 090°55'0 0.0
2017-Sep-06 21:30N 32°17' W 090°55'0 0.0
2017-Sep-06 21:00N 32°17' W 090°55'0 0.0
2017-Sep-06 20:30N 32°17' W 090°55'0 0.0
2017-Sep-06 20:00N 32°17' W 090°55'0 0.0
2017-Sep-06 19:30N 32°17' W 090°55'0 0.0
2017-Sep-06 19:00N 32°17' W 090°55'0 0.0
2017-Sep-06 18:30N 32°17' W 090°55'0 0.0
2017-Sep-06 18:00N 32°17' W 090°55'0 0.0
2017-Sep-06 17:30N 32°17' W 090°55'0 0.0
2017-Sep-06 17:00N 32°17' W 090°55'0 0.0
2017-Sep-06 16:30N 32°17' W 090°55'0 0.0
2017-Sep-06 16:00N 32°17' W 090°55'0 0.0
2017-Sep-06 15:30N 32°17' W 090°55'0 0.0
2017-Sep-06 15:00N 32°17' W 090°55'0 0.0
2017-Sep-06 14:31N 32°17' W 090°55'0 0.0
2017-Sep-06 14:01N 32°17' W 090°55'0 0.0
2017-Sep-06 13:31N 32°17' W 090°55'0 0.0
2017-Sep-06 13:01N 32°17' W 090°55'0 0.0
2017-Sep-06 12:31N 32°17' W 090°55'0 0.0
2017-Sep-06 12:01N 32°17' W 090°55'0 0.0
2017-Sep-06 11:31N 32°17' W 090°55'0 0.0
2017-Sep-06 11:01N 32°17' W 090°55'0 0.0
2017-Sep-06 10:31N 32°17' W 090°55'0 0.0
2017-Sep-06 10:01N 32°17' W 090°55'0 0.0
2017-Sep-06 09:31N 32°17' W 090°55'0 0.0
2017-Sep-06 09:01N 32°17' W 090°55'0 0.0
2017-Sep-06 08:31N 32°17' W 090°55'0 0.0
2017-Sep-06 08:01N 32°17' W 090°55'0 0.0
2017-Sep-06 07:31N 32°17' W 090°55'0 0.0
2017-Sep-06 07:01N 32°17' W 090°55'0 0.0
2017-Sep-06 06:31N 32°17' W 090°55'0 0.0
2017-Sep-06 06:01N 32°17' W 090°55'0 0.0
2017-Sep-06 05:30N 32°17' W 090°55'0 0.0
2017-Sep-06 05:01N 32°17' W 090°55'0 0.0
2017-Sep-06 04:31N 32°17' W 090°55'0 0.0
2017-Sep-06 04:01N 32°17' W 090°55'0 0.0
2017-Sep-06 03:31N 32°17' W 090°55'0 0.0
2017-Sep-06 03:01N 32°17' W 090°55'  

Dump ship's entire track history